KMWO/MWO METAR and TAF weather

Enter ICAO airport designator
Station Type Date Time Source
KMWO METAR 2021/10/24 20:55 UTC NOAA

KMWO 242055Z AUTO 06006KT 7SM SCT012 BKN033 OVC100 17/17 A2987 RMK AO2 T0172////


Station Type Date Time Source
KMWO Decoded METAR 2021/10/24 20:55 UTC NOAA

Station name not available
Oct 24, 2021 - 04:55 PM EDT / 2021.10.24 2055 UTC
Wind: from the ENE (060 degrees) at 7 MPH (6 KT):0
Visibility: 7 mile(s):0
Sky conditions: overcast
Temperature: 62 F (17 C)
Dew Point: 62 F (17 C)
Relative Humidity: 100%
Pressure (altimeter): 29.87 in. Hg (1011 hPa)
ob: KMWO 242055Z AUTO 06006KT 7SM SCT012 BKN033 OVC100 17/17 A2987 RMK AO2 T0172////
cycle: 21

Station Type Date Time Source
KMWO TAF UTC NOAA

Error!

Example: see airport list